Terminal Aerodrome Forecast
Issued by NWS Sterling, VA

Current Version | Previous Version | Graphics & Text | Print | Product List | Glossary On
Versions: 1 2 3 4 5 6 7 8 9 10 11 12 13 14 15 16 17 18 19 20
000
FTUS41 KLWX 191138
TAFMRB
TAF
KMRB 191138Z 1912/2012 01003KT 2SM BR SCT015
     FM191300 35008KT P6SM BKN015
     FM191600 35008KT P6SM SCT025
     FM200500 36006KT 3SM BR SCT200=

USA.gov is the U.S. government's official web portal to all federal, state and local government web resources and services.